sensor_id;sensor_type;location;lat;lon;timestamp;P1;durP1;ratioP1;P2;durP2;ratioP2
13868;SDS011;7004;48.206;16.402;2022-08-21T00:01:18;4.80;;;3.07;;
13868;SDS011;7004;48.206;16.402;2022-08-21T00:03:50;3.10;;;2.80;;
13868;SDS011;7004;48.206;16.402;2022-08-21T00:06:16;3.30;;;2.97;;
13868;SDS011;7004;48.206;16.402;2022-08-21T00:08:44;3.27;;;3.07;;
13868;SDS011;7004;48.206;16.402;2022-08-21T00:11:11;4.93;;;3.10;;
13868;SDS011;7004;48.206;16.402;2022-08-21T00:13:39;3.23;;;3.03;;
13868;SDS011;7004;48.206;16.402;2022-08-21T00:16:06;3.40;;;3.10;;
13868;SDS011;7004;48.206;16.402;2022-08-21T00:18:33;2.83;;;2.53;;
13868;SDS011;7004;48.206;16.402;2022-08-21T00:20:59;2.97;;;2.77;;
13868;SDS011;7004;48.206;16.402;2022-08-21T00:23:27;3.10;;;2.87;;
13868;SDS011;7004;48.206;16.402;2022-08-21T00:25:53;2.90;;;2.70;;
13868;SDS011;7004;48.206;16.402;2022-08-21T00:28:19;2.90;;;2.70;;
13868;SDS011;7004;48.206;16.402;2022-08-21T00:30:46;3.30;;;3.00;;
13868;SDS011;7004;48.206;16.402;2022-08-21T00:33:12;3.80;;;2.70;;
13868;SDS011;7004;48.206;16.402;2022-08-21T00:35:39;3.37;;;3.07;;
13868;SDS011;7004;48.206;16.402;2022-08-21T00:38:07;3.83;;;3.53;;
13868;SDS011;7004;48.206;16.402;2022-08-21T00:40:37;3.80;;;3.50;;
13868;SDS011;7004;48.206;16.402;2022-08-21T00:43:12;3.93;;;3.43;;
13868;SDS011;7004;48.206;16.402;2022-08-21T00:45:42;3.97;;;3.67;;
13868;SDS011;7004;48.206;16.402;2022-08-21T00:48:08;5.87;;;3.77;;
13868;SDS011;7004;48.206;16.402;2022-08-21T00:50:35;3.80;;;3.50;;
13868;SDS011;7004;48.206;16.402;2022-08-21T00:53:11;3.60;;;3.30;;
13868;SDS011;7004;48.206;16.402;2022-08-21T00:55:38;3.70;;;3.40;;
13868;SDS011;7004;48.206;16.402;2022-08-21T00:58:07;4.20;;;3.40;;
13868;SDS011;7004;48.206;16.402;2022-08-21T01:00:38;3.87;;;3.57;;
13868;SDS011;7004;48.206;16.402;2022-08-21T01:03:09;4.63;;;4.03;;
13868;SDS011;7004;48.206;16.402;2022-08-21T01:05:41;5.67;;;3.93;;
13868;SDS011;7004;48.206;16.402;2022-08-21T01:08:13;3.80;;;3.50;;
13868;SDS011;7004;48.206;16.402;2022-08-21T01:10:44;4.53;;;4.13;;
13868;SDS011;7004;48.206;16.402;2022-08-21T01:13:14;4.23;;;3.70;;
13868;SDS011;7004;48.206;16.402;2022-08-21T01:15:44;4.27;;;3.80;;
13868;SDS011;7004;48.206;16.402;2022-08-21T01:18:17;4.23;;;3.77;;
13868;SDS011;7004;48.206;16.402;2022-08-21T01:23:30;4.33;;;3.93;;
13868;SDS011;7004;48.206;16.402;2022-08-21T01:25:56;4.77;;;4.00;;
13868;SDS011;7004;48.206;16.402;2022-08-21T01:28:22;4.13;;;3.80;;
13868;SDS011;7004;48.206;16.402;2022-08-21T01:30:50;4.40;;;4.10;;
13868;SDS011;7004;48.206;16.402;2022-08-21T01:33:20;4.60;;;4.20;;
13868;SDS011;7004;48.206;16.402;2022-08-21T01:35:50;4.30;;;3.90;;
13868;SDS011;7004;48.206;16.402;2022-08-21T01:38:16;4.90;;;4.47;;
13868;SDS011;7004;48.206;16.402;2022-08-21T01:40:43;4.83;;;4.43;;
13868;SDS011;7004;48.206;16.402;2022-08-21T01:43:09;4.90;;;4.40;;
13868;SDS011;7004;48.206;16.402;2022-08-21T01:45:35;4.63;;;4.23;;
13868;SDS011;7004;48.206;16.402;2022-08-21T01:48:02;4.93;;;4.50;;
13868;SDS011;7004;48.206;16.402;2022-08-21T01:50:29;4.50;;;4.10;;
13868;SDS011;7004;48.206;16.402;2022-08-21T01:52:55;4.90;;;4.50;;
13868;SDS011;7004;48.206;16.402;2022-08-21T01:55:21;4.57;;;4.20;;
13868;SDS011;7004;48.206;16.402;2022-08-21T01:57:48;4.77;;;4.23;;
13868;SDS011;7004;48.206;16.402;2022-08-21T02:00:17;3.97;;;3.67;;
13868;SDS011;7004;48.206;16.402;2022-08-21T02:02:48;4.10;;;3.80;;
13868;SDS011;7004;48.206;16.402;2022-08-21T02:05:15;3.93;;;3.63;;
13868;SDS011;7004;48.206;16.402;2022-08-21T02:07:43;3.77;;;3.43;;
13868;SDS011;7004;48.206;16.402;2022-08-21T02:10:15;3.40;;;3.20;;
13868;SDS011;7004;48.206;16.402;2022-08-21T02:12:48;3.40;;;3.10;;
13868;SDS011;7004;48.206;16.402;2022-08-21T02:15:15;3.70;;;3.40;;
13868;SDS011;7004;48.206;16.402;2022-08-21T02:17:43;3.73;;;3.43;;
13868;SDS011;7004;48.206;16.402;2022-08-21T02:20:20;3.40;;;3.10;;
13868;SDS011;7004;48.206;16.402;2022-08-21T02:22:54;4.97;;;3.40;;
13868;SDS011;7004;48.206;16.402;2022-08-21T02:25:23;3.63;;;3.33;;
13868;SDS011;7004;48.206;16.402;2022-08-21T02:27:54;3.17;;;2.97;;
13868;SDS011;7004;48.206;16.402;2022-08-21T02:30:29;3.23;;;3.03;;
13868;SDS011;7004;48.206;16.402;2022-08-21T02:33:03;3.27;;;2.97;;
13868;SDS011;7004;48.206;16.402;2022-08-21T02:35:33;3.23;;;3.03;;
13868;SDS011;7004;48.206;16.402;2022-08-21T02:38:01;3.03;;;2.83;;
13868;SDS011;7004;48.206;16.402;2022-08-21T02:40:35;2.77;;;2.57;;
13868;SDS011;7004;48.206;16.402;2022-08-21T02:43:05;3.00;;;2.80;;
13868;SDS011;7004;48.206;16.402;2022-08-21T02:45:32;3.40;;;3.10;;
13868;SDS011;7004;48.206;16.402;2022-08-21T02:48:02;3.07;;;2.87;;
13868;SDS011;7004;48.206;16.402;2022-08-21T02:50:43;3.37;;;2.80;;
13868;SDS011;7004;48.206;16.402;2022-08-21T02:53:14;2.90;;;2.70;;
13868;SDS011;7004;48.206;16.402;2022-08-21T02:55:42;3.17;;;2.73;;
13868;SDS011;7004;48.206;16.402;2022-08-21T02:58:12;2.73;;;2.53;;
13868;SDS011;7004;48.206;16.402;2022-08-21T03:00:41;2.87;;;2.57;;
13868;SDS011;7004;48.206;16.402;2022-08-21T03:03:09;2.73;;;2.53;;
13868;SDS011;7004;48.206;16.402;2022-08-21T03:05:35;2.90;;;2.70;;
13868;SDS011;7004;48.206;16.402;2022-08-21T03:08:03;3.00;;;2.70;;
13868;SDS011;7004;48.206;16.402;2022-08-21T03:10:37;2.83;;;2.63;;
13868;SDS011;7004;48.206;16.402;2022-08-21T03:13:06;3.10;;;2.90;;
13868;SDS011;7004;48.206;16.402;2022-08-21T03:15:33;2.60;;;2.40;;
13868;SDS011;7004;48.206;16.402;2022-08-21T03:17:59;3.17;;;2.90;;
13868;SDS011;7004;48.206;16.402;2022-08-21T03:20:28;2.77;;;2.53;;
13868;SDS011;7004;48.206;16.402;2022-08-21T03:22:56;2.80;;;2.50;;
13868;SDS011;7004;48.206;16.402;2022-08-21T03:25:22;2.70;;;2.50;;
13868;SDS011;7004;48.206;16.402;2022-08-21T03:27:50;2.30;;;2.10;;
13868;SDS011;7004;48.206;16.402;2022-08-21T03:30:17;2.30;;;2.10;;
13868;SDS011;7004;48.206;16.402;2022-08-21T03:32:45;2.73;;;2.03;;
13868;SDS011;7004;48.206;16.402;2022-08-21T03:35:13;1.90;;;1.80;;
13868;SDS011;7004;48.206;16.402;2022-08-21T03:37:40;2.17;;;1.97;;
13868;SDS011;7004;48.206;16.402;2022-08-21T03:40:07;1.70;;;1.60;;
13868;SDS011;7004;48.206;16.402;2022-08-21T03:42:35;1.73;;;1.63;;
13868;SDS011;7004;48.206;16.402;2022-08-21T03:45:02;1.77;;;1.67;;
13868;SDS011;7004;48.206;16.402;2022-08-21T03:47:29;1.80;;;1.70;;
13868;SDS011;7004;48.206;16.402;2022-08-21T03:49:55;1.63;;;1.53;;
13868;SDS011;7004;48.206;16.402;2022-08-21T03:52:22;1.70;;;1.60;;
13868;SDS011;7004;48.206;16.402;2022-08-21T03:54:48;2.73;;;1.70;;
13868;SDS011;7004;48.206;16.402;2022-08-21T03:57:15;2.43;;;1.60;;
13868;SDS011;7004;48.206;16.402;2022-08-21T03:59:42;3.33;;;1.60;;
13868;SDS011;7004;48.206;16.402;2022-08-21T04:02:08;1.60;;;1.50;;
13868;SDS011;7004;48.206;16.402;2022-08-21T04:04:36;1.67;;;1.57;;
13868;SDS011;7004;48.206;16.402;2022-08-21T04:07:03;2.00;;;1.80;;
13868;SDS011;7004;48.206;16.402;2022-08-21T04:09:29;1.77;;;1.67;;
13868;SDS011;7004;48.206;16.402;2022-08-21T04:11:56;1.77;;;1.67;;
13868;SDS011;7004;48.206;16.402;2022-08-21T04:14:24;1.73;;;1.63;;
13868;SDS011;7004;48.206;16.402;2022-08-21T04:16:50;1.90;;;1.80;;
13868;SDS011;7004;48.206;16.402;2022-08-21T04:19:16;1.80;;;1.70;;
13868;SDS011;7004;48.206;16.402;2022-08-21T04:21:43;1.90;;;1.80;;
13868;SDS011;7004;48.206;16.402;2022-08-21T04:24:10;2.20;;;2.00;;
13868;SDS011;7004;48.206;16.402;2022-08-21T04:26:36;2.27;;;2.10;;
13868;SDS011;7004;48.206;16.402;2022-08-21T04:29:04;2.17;;;2.00;;
13868;SDS011;7004;48.206;16.402;2022-08-21T04:31:34;3.20;;;2.20;;
13868;SDS011;7004;48.206;16.402;2022-08-21T04:34:02;3.17;;;2.30;;
13868;SDS011;7004;48.206;16.402;2022-08-21T04:36:30;2.40;;;2.20;;
13868;SDS011;7004;48.206;16.402;2022-08-21T04:38:57;2.43;;;2.10;;
13868;SDS011;7004;48.206;16.402;2022-08-21T04:41:25;2.70;;;2.50;;
13868;SDS011;7004;48.206;16.402;2022-08-21T04:43:51;2.37;;;2.27;;
13868;SDS011;7004;48.206;16.402;2022-08-21T04:46:17;2.67;;;2.47;;
13868;SDS011;7004;48.206;16.402;2022-08-21T04:48:44;2.70;;;2.50;;
13868;SDS011;7004;48.206;16.402;2022-08-21T04:53:44;2.60;;;2.40;;
13868;SDS011;7004;48.206;16.402;2022-08-21T04:56:30;2.57;;;2.30;;
13868;SDS011;7004;48.206;16.402;2022-08-21T04:59:05;3.20;;;2.90;;
13868;SDS011;7004;48.206;16.402;2022-08-21T05:01:38;3.27;;;2.97;;
13868;SDS011;7004;48.206;16.402;2022-08-21T05:04:06;2.60;;;2.40;;
13868;SDS011;7004;48.206;16.402;2022-08-21T05:06:36;2.80;;;2.60;;
13868;SDS011;7004;48.206;16.402;2022-08-21T05:09:04;2.83;;;2.63;;
13868;SDS011;7004;48.206;16.402;2022-08-21T05:11:31;2.83;;;2.60;;
13868;SDS011;7004;48.206;16.402;2022-08-21T05:13:58;2.70;;;2.50;;
13868;SDS011;7004;48.206;16.402;2022-08-21T05:16:24;3.33;;;3.03;;
13868;SDS011;7004;48.206;16.402;2022-08-21T05:18:51;3.00;;;2.80;;
13868;SDS011;7004;48.206;16.402;2022-08-21T05:21:18;2.80;;;2.60;;
13868;SDS011;7004;48.206;16.402;2022-08-21T05:23:44;2.80;;;2.60;;
13868;SDS011;7004;48.206;16.402;2022-08-21T05:26:10;3.10;;;2.90;;
13868;SDS011;7004;48.206;16.402;2022-08-21T05:28:37;2.67;;;2.47;;
13868;SDS011;7004;48.206;16.402;2022-08-21T05:31:03;2.77;;;2.57;;
13868;SDS011;7004;48.206;16.402;2022-08-21T05:33:29;2.90;;;2.70;;
13868;SDS011;7004;48.206;16.402;2022-08-21T05:35:55;3.60;;;2.70;;
13868;SDS011;7004;48.206;16.402;2022-08-21T05:38:22;2.90;;;2.70;;
13868;SDS011;7004;48.206;16.402;2022-08-21T05:40:50;3.10;;;2.90;;
13868;SDS011;7004;48.206;16.402;2022-08-21T05:43:16;3.17;;;2.87;;
13868;SDS011;7004;48.206;16.402;2022-08-21T05:45:42;3.30;;;3.00;;
13868;SDS011;7004;48.206;16.402;2022-08-21T05:48:30;3.73;;;3.40;;
13868;SDS011;7004;48.206;16.402;2022-08-21T05:50:56;3.83;;;3.53;;
13868;SDS011;7004;48.206;16.402;2022-08-21T05:53:23;3.33;;;3.13;;
13868;SDS011;7004;48.206;16.402;2022-08-21T05:55:50;3.60;;;3.30;;
13868;SDS011;7004;48.206;16.402;2022-08-21T05:58:18;3.33;;;3.13;;
13868;SDS011;7004;48.206;16.402;2022-08-21T06:00:47;3.70;;;3.17;;
13868;SDS011;7004;48.206;16.402;2022-08-21T06:03:16;3.57;;;3.27;;
13868;SDS011;7004;48.206;16.402;2022-08-21T06:05:48;3.40;;;3.10;;
13868;SDS011;7004;48.206;16.402;2022-08-21T06:08:15;4.03;;;3.67;;
13868;SDS011;7004;48.206;16.402;2022-08-21T06:10:42;3.63;;;3.20;;
13868;SDS011;7004;48.206;16.402;2022-08-21T06:13:10;3.67;;;3.27;;
13868;SDS011;7004;48.206;16.402;2022-08-21T06:15:37;3.80;;;3.50;;
13868;SDS011;7004;48.206;16.402;2022-08-21T06:18:04;3.90;;;3.60;;
13868;SDS011;7004;48.206;16.402;2022-08-21T06:20:31;3.57;;;3.27;;
13868;SDS011;7004;48.206;16.402;2022-08-21T06:22:59;4.63;;;3.67;;
13868;SDS011;7004;48.206;16.402;2022-08-21T06:25:26;3.60;;;3.33;;
13868;SDS011;7004;48.206;16.402;2022-08-21T06:27:53;3.80;;;3.50;;
13868;SDS011;7004;48.206;16.402;2022-08-21T06:30:24;3.60;;;3.30;;
13868;SDS011;7004;48.206;16.402;2022-08-21T06:32:51;3.87;;;3.53;;
13868;SDS011;7004;48.206;16.402;2022-08-21T06:35:16;3.80;;;3.50;;
13868;SDS011;7004;48.206;16.402;2022-08-21T06:37:43;3.80;;;3.50;;
13868;SDS011;7004;48.206;16.402;2022-08-21T06:40:09;4.10;;;3.80;;
13868;SDS011;7004;48.206;16.402;2022-08-21T06:42:36;3.30;;;3.00;;
13868;SDS011;7004;48.206;16.402;2022-08-21T06:45:02;3.53;;;3.30;;
13868;SDS011;7004;48.206;16.402;2022-08-21T06:47:29;3.30;;;3.10;;
13868;SDS011;7004;48.206;16.402;2022-08-21T06:49:55;3.63;;;3.33;;
13868;SDS011;7004;48.206;16.402;2022-08-21T06:52:22;3.83;;;3.53;;
13868;SDS011;7004;48.206;16.402;2022-08-21T06:54:48;3.90;;;3.60;;
13868;SDS011;7004;48.206;16.402;2022-08-21T06:57:15;4.20;;;3.73;;
13868;SDS011;7004;48.206;16.402;2022-08-21T06:59:41;3.90;;;3.60;;
13868;SDS011;7004;48.206;16.402;2022-08-21T07:02:08;4.10;;;3.80;;
13868;SDS011;7004;48.206;16.402;2022-08-21T07:04:34;4.20;;;3.80;;
13868;SDS011;7004;48.206;16.402;2022-08-21T07:07:00;6.30;;;4.50;;
13868;SDS011;7004;48.206;16.402;2022-08-21T07:09:26;4.43;;;4.03;;
13868;SDS011;7004;48.206;16.402;2022-08-21T07:11:53;3.70;;;3.40;;
13868;SDS011;7004;48.206;16.402;2022-08-21T07:14:21;4.40;;;4.00;;
13868;SDS011;7004;48.206;16.402;2022-08-21T07:16:48;4.10;;;3.80;;
13868;SDS011;7004;48.206;16.402;2022-08-21T07:19:14;4.27;;;3.97;;
13868;SDS011;7004;48.206;16.402;2022-08-21T07:21:41;4.40;;;4.10;;
13868;SDS011;7004;48.206;16.402;2022-08-21T07:24:07;3.83;;;3.53;;
13868;SDS011;7004;48.206;16.402;2022-08-21T07:26:33;4.73;;;4.33;;
13868;SDS011;7004;48.206;16.402;2022-08-21T07:29:00;4.40;;;3.77;;
13868;SDS011;7004;48.206;16.402;2022-08-21T07:31:26;4.23;;;3.93;;
13868;SDS011;7004;48.206;16.402;2022-08-21T07:33:53;5.30;;;4.20;;
13868;SDS011;7004;48.206;16.402;2022-08-21T07:36:19;4.50;;;4.10;;
13868;SDS011;7004;48.206;16.402;2022-08-21T07:38:46;4.80;;;4.37;;
13868;SDS011;7004;48.206;16.402;2022-08-21T07:41:14;4.47;;;4.17;;
13868;SDS011;7004;48.206;16.402;2022-08-21T07:43:44;4.70;;;4.20;;
13868;SDS011;7004;48.206;16.402;2022-08-21T07:46:11;4.10;;;3.70;;
13868;SDS011;7004;48.206;16.402;2022-08-21T07:48:38;4.30;;;3.97;;
13868;SDS011;7004;48.206;16.402;2022-08-21T07:51:06;4.40;;;4.00;;
13868;SDS011;7004;48.206;16.402;2022-08-21T07:53:35;3.97;;;3.67;;
13868;SDS011;7004;48.206;16.402;2022-08-21T07:56:04;3.80;;;3.50;;
13868;SDS011;7004;48.206;16.402;2022-08-21T07:58:32;4.10;;;3.80;;
13868;SDS011;7004;48.206;16.402;2022-08-21T08:00:59;4.37;;;3.97;;
13868;SDS011;7004;48.206;16.402;2022-08-21T08:03:25;4.00;;;3.67;;
13868;SDS011;7004;48.206;16.402;2022-08-21T08:05:52;3.90;;;3.60;;
13868;SDS011;7004;48.206;16.402;2022-08-21T08:08:18;4.30;;;3.90;;
13868;SDS011;7004;48.206;16.402;2022-08-21T08:10:45;5.20;;;4.03;;
13868;SDS011;7004;48.206;16.402;2022-08-21T08:13:13;3.90;;;3.60;;
13868;SDS011;7004;48.206;16.402;2022-08-21T08:15:39;4.20;;;3.90;;
13868;SDS011;7004;48.206;16.402;2022-08-21T08:18:05;4.97;;;4.57;;
13868;SDS011;7004;48.206;16.402;2022-08-21T08:20:31;5.30;;;4.80;;
13868;SDS011;7004;48.206;16.402;2022-08-21T08:22:58;4.83;;;4.43;;
13868;SDS011;7004;48.206;16.402;2022-08-21T08:25:24;4.80;;;4.40;;
13868;SDS011;7004;48.206;16.402;2022-08-21T08:27:52;4.70;;;4.30;;
13868;SDS011;7004;48.206;16.402;2022-08-21T08:30:18;5.00;;;4.60;;
13868;SDS011;7004;48.206;16.402;2022-08-21T08:32:46;5.10;;;4.70;;
13868;SDS011;7004;48.206;16.402;2022-08-21T08:35:13;5.00;;;4.30;;
13868;SDS011;7004;48.206;16.402;2022-08-21T08:37:40;5.13;;;4.73;;
13868;SDS011;7004;48.206;16.402;2022-08-21T08:40:18;4.70;;;4.30;;
13868;SDS011;7004;48.206;16.402;2022-08-21T08:43:11;4.63;;;4.20;;
13868;SDS011;7004;48.206;16.402;2022-08-21T08:45:39;4.43;;;4.13;;
13868;SDS011;7004;48.206;16.402;2022-08-21T08:48:10;4.47;;;4.13;;
13868;SDS011;7004;48.206;16.402;2022-08-21T08:50:48;5.00;;;4.60;;
13868;SDS011;7004;48.206;16.402;2022-08-21T08:53:22;5.50;;;5.00;;
13868;SDS011;7004;48.206;16.402;2022-08-21T08:55:55;4.57;;;4.17;;
13868;SDS011;7004;48.206;16.402;2022-08-21T08:58:23;4.73;;;4.33;;
13868;SDS011;7004;48.206;16.402;2022-08-21T09:00:58;4.57;;;4.17;;
13868;SDS011;7004;48.206;16.402;2022-08-21T09:03:26;5.03;;;4.63;;
13868;SDS011;7004;48.206;16.402;2022-08-21T09:05:59;4.60;;;4.20;;
13868;SDS011;7004;48.206;16.402;2022-08-21T09:09:10;4.23;;;3.93;;
13868;SDS011;7004;48.206;16.402;2022-08-21T09:11:59;4.50;;;3.87;;
13868;SDS011;7004;48.206;16.402;2022-08-21T09:18:25;3.93;;;3.63;;
13868;SDS011;7004;48.206;16.402;2022-08-21T09:26:45;3.93;;;3.63;;
13868;SDS011;7004;48.206;16.402;2022-08-21T09:29:25;3.90;;;3.50;;
13868;SDS011;7004;48.206;16.402;2022-08-21T09:31:55;4.07;;;3.40;;
13868;SDS011;7004;48.206;16.402;2022-08-21T09:34:28;3.97;;;3.57;;
13868;SDS011;7004;48.206;16.402;2022-08-21T09:36:56;3.67;;;3.37;;
13868;SDS011;7004;48.206;16.402;2022-08-21T09:39:25;3.60;;;3.30;;
13868;SDS011;7004;48.206;16.402;2022-08-21T09:42:02;4.00;;;3.70;;
13868;SDS011;7004;48.206;16.402;2022-08-21T09:44:33;3.23;;;3.00;;
13868;SDS011;7004;48.206;16.402;2022-08-21T09:47:08;2.80;;;2.60;;
13868;SDS011;7004;48.206;16.402;2022-08-21T09:49:39;3.43;;;3.10;;
13868;SDS011;7004;48.206;16.402;2022-08-21T09:52:20;2.80;;;2.60;;
13868;SDS011;7004;48.206;16.402;2022-08-21T09:54:51;2.60;;;2.40;;
13868;SDS011;7004;48.206;16.402;2022-08-21T09:57:27;2.70;;;2.50;;
13868;SDS011;7004;48.206;16.402;2022-08-21T10:03:07;2.73;;;2.53;;
13868;SDS011;7004;48.206;16.402;2022-08-21T10:05:57;2.00;;;1.90;;
13868;SDS011;7004;48.206;16.402;2022-08-21T10:08:25;2.07;;;1.97;;
13868;SDS011;7004;48.206;16.402;2022-08-21T10:10:55;2.20;;;2.00;;
13868;SDS011;7004;48.206;16.402;2022-08-21T10:33:27;3.13;;;2.93;;
13868;SDS011;7004;48.206;16.402;2022-08-21T10:36:14;3.30;;;3.00;;
13868;SDS011;7004;48.206;16.402;2022-08-21T10:39:02;3.30;;;3.10;;
13868;SDS011;7004;48.206;16.402;2022-08-21T10:44:49;3.70;;;3.40;;
13868;SDS011;7004;48.206;16.402;2022-08-21T10:47:38;3.73;;;3.20;;
13868;SDS011;7004;48.206;16.402;2022-08-21T10:50:35;3.30;;;3.10;;
13868;SDS011;7004;48.206;16.402;2022-08-21T10:56:14;3.50;;;3.20;;
13868;SDS011;7004;48.206;16.402;2022-08-21T11:07:36;3.07;;;2.80;;
13868;SDS011;7004;48.206;16.402;2022-08-21T11:10:17;2.50;;;2.30;;
13868;SDS011;7004;48.206;16.402;2022-08-21T11:15:39;2.40;;;2.20;;
13868;SDS011;7004;48.206;16.402;2022-08-21T11:27:09;1.97;;;1.87;;
13868;SDS011;7004;48.206;16.402;2022-08-21T11:30:01;2.00;;;1.90;;
13868;SDS011;7004;48.206;16.402;2022-08-21T11:38:22;2.00;;;1.80;;
13868;SDS011;7004;48.206;16.402;2022-08-21T11:47:27;2.67;;;1.87;;
13868;SDS011;7004;48.206;16.402;2022-08-21T11:50:24;2.07;;;1.87;;
13868;SDS011;7004;48.206;16.402;2022-08-21T11:52:57;2.60;;;2.13;;
13868;SDS011;7004;48.206;16.402;2022-08-21T11:58:21;3.07;;;1.93;;
13868;SDS011;7004;48.206;16.402;2022-08-21T12:00:57;5.60;;;3.77;;
13868;SDS011;7004;48.206;16.402;2022-08-21T12:03:53;3.87;;;2.83;;
13868;SDS011;7004;48.206;16.402;2022-08-21T12:06:55;10.90;;;7.47;;
13868;SDS011;7004;48.206;16.402;2022-08-21T12:14:41;1.93;;;1.83;;
13868;SDS011;7004;48.206;16.402;2022-08-21T12:17:19;1.93;;;1.83;;
13868;SDS011;7004;48.206;16.402;2022-08-21T12:20:00;2.10;;;2.00;;
13868;SDS011;7004;48.206;16.402;2022-08-21T12:25:39;2.77;;;2.00;;
13868;SDS011;7004;48.206;16.402;2022-08-21T12:28:10;2.87;;;2.20;;
13868;SDS011;7004;48.206;16.402;2022-08-21T12:30:42;1.80;;;1.70;;
13868;SDS011;7004;48.206;16.402;2022-08-21T12:33:22;1.80;;;1.60;;
13868;SDS011;7004;48.206;16.402;2022-08-21T12:36:04;2.00;;;1.83;;
13868;SDS011;7004;48.206;16.402;2022-08-21T12:38:46;2.00;;;1.90;;
13868;SDS011;7004;48.206;16.402;2022-08-21T12:41:20;2.17;;;2.00;;
13868;SDS011;7004;48.206;16.402;2022-08-21T12:44:05;6.27;;;1.90;;
13868;SDS011;7004;48.206;16.402;2022-08-21T12:46:42;6.67;;;2.27;;
13868;SDS011;7004;48.206;16.402;2022-08-21T12:49:31;2.73;;;2.30;;
13868;SDS011;7004;48.206;16.402;2022-08-21T12:52:09;2.17;;;2.00;;
13868;SDS011;7004;48.206;16.402;2022-08-21T12:54:56;2.10;;;1.90;;
13868;SDS011;7004;48.206;16.402;2022-08-21T12:57:25;2.07;;;1.93;;
13868;SDS011;7004;48.206;16.402;2022-08-21T13:02:28;2.30;;;2.10;;
13868;SDS011;7004;48.206;16.402;2022-08-21T13:04:58;2.40;;;2.20;;
13868;SDS011;7004;48.206;16.402;2022-08-21T13:07:32;2.23;;;2.03;;
13868;SDS011;7004;48.206;16.402;2022-08-21T13:10:06;2.47;;;2.20;;
13868;SDS011;7004;48.206;16.402;2022-08-21T13:12:48;2.53;;;2.00;;
13868;SDS011;7004;48.206;16.402;2022-08-21T13:15:22;2.43;;;2.20;;
13868;SDS011;7004;48.206;16.402;2022-08-21T13:17:57;2.10;;;1.90;;
13868;SDS011;7004;48.206;16.402;2022-08-21T13:20:36;2.23;;;2.03;;
13868;SDS011;7004;48.206;16.402;2022-08-21T13:26:11;2.27;;;2.10;;
13868;SDS011;7004;48.206;16.402;2022-08-21T13:28:45;1.93;;;1.83;;
13868;SDS011;7004;48.206;16.402;2022-08-21T13:31:15;2.10;;;1.90;;
13868;SDS011;7004;48.206;16.402;2022-08-21T13:33:47;1.93;;;1.83;;
13868;SDS011;7004;48.206;16.402;2022-08-21T13:36:35;2.00;;;1.90;;
13868;SDS011;7004;48.206;16.402;2022-08-21T13:39:16;3.90;;;1.90;;
13868;SDS011;7004;48.206;16.402;2022-08-21T13:41:45;2.30;;;2.10;;
13868;SDS011;7004;48.206;16.402;2022-08-21T13:44:16;5.37;;;2.07;;
13868;SDS011;7004;48.206;16.402;2022-08-21T13:46:57;2.33;;;2.13;;
13868;SDS011;7004;48.206;16.402;2022-08-21T13:49:28;3.40;;;2.20;;
13868;SDS011;7004;48.206;16.402;2022-08-21T13:52:05;2.37;;;2.20;;
13868;SDS011;7004;48.206;16.402;2022-08-21T13:54:59;2.10;;;1.90;;
13868;SDS011;7004;48.206;16.402;2022-08-21T13:57:39;2.60;;;2.40;;
13868;SDS011;7004;48.206;16.402;2022-08-21T14:00:43;2.20;;;2.00;;
13868;SDS011;7004;48.206;16.402;2022-08-21T14:03:09;2.37;;;2.20;;
13868;SDS011;7004;48.206;16.402;2022-08-21T14:05:52;2.57;;;2.37;;
13868;SDS011;7004;48.206;16.402;2022-08-21T14:08:37;2.43;;;2.23;;
13868;SDS011;7004;48.206;16.402;2022-08-21T14:11:10;3.83;;;2.50;;
13868;SDS011;7004;48.206;16.402;2022-08-21T14:13:40;2.93;;;2.40;;
13868;SDS011;7004;48.206;16.402;2022-08-21T14:16:23;2.60;;;2.40;;
13868;SDS011;7004;48.206;16.402;2022-08-21T14:21:49;3.10;;;2.80;;
13868;SDS011;7004;48.206;16.402;2022-08-21T14:29:33;4.03;;;3.20;;
13868;SDS011;7004;48.206;16.402;2022-08-21T14:32:24;4.43;;;3.03;;
13868;SDS011;7004;48.206;16.402;2022-08-21T14:34:55;3.17;;;2.63;;
13868;SDS011;7004;48.206;16.402;2022-08-21T14:37:23;2.80;;;2.60;;
13868;SDS011;7004;48.206;16.402;2022-08-21T14:39:49;6.53;;;2.90;;
13868;SDS011;7004;48.206;16.402;2022-08-21T14:42:15;3.47;;;2.87;;
13868;SDS011;7004;48.206;16.402;2022-08-21T14:44:42;3.20;;;2.90;;
13868;SDS011;7004;48.206;16.402;2022-08-21T14:47:08;3.50;;;2.90;;
13868;SDS011;7004;48.206;16.402;2022-08-21T14:49:35;3.33;;;2.70;;
13868;SDS011;7004;48.206;16.402;2022-08-21T14:52:01;3.80;;;3.30;;
13868;SDS011;7004;48.206;16.402;2022-08-21T14:54:29;4.93;;;3.37;;
13868;SDS011;7004;48.206;16.402;2022-08-21T14:56:57;4.43;;;2.90;;
13868;SDS011;7004;48.206;16.402;2022-08-21T14:59:35;4.67;;;3.33;;
13868;SDS011;7004;48.206;16.402;2022-08-21T15:02:03;3.77;;;3.27;;
13868;SDS011;7004;48.206;16.402;2022-08-21T15:04:32;3.57;;;3.27;;
13868;SDS011;7004;48.206;16.402;2022-08-21T15:06:59;4.20;;;3.73;;
13868;SDS011;7004;48.206;16.402;2022-08-21T15:09:26;4.43;;;3.33;;
13868;SDS011;7004;48.206;16.402;2022-08-21T15:11:53;5.23;;;3.40;;
13868;SDS011;7004;48.206;16.402;2022-08-21T15:14:25;3.53;;;3.23;;
13868;SDS011;7004;48.206;16.402;2022-08-21T15:16:56;4.10;;;3.47;;
13868;SDS011;7004;48.206;16.402;2022-08-21T15:19:23;3.40;;;3.10;;
13868;SDS011;7004;48.206;16.402;2022-08-21T15:21:50;4.43;;;3.40;;
13868;SDS011;7004;48.206;16.402;2022-08-21T15:24:16;3.77;;;3.40;;
13868;SDS011;7004;48.206;16.402;2022-08-21T15:26:42;5.13;;;3.20;;
13868;SDS011;7004;48.206;16.402;2022-08-21T15:29:09;5.57;;;3.30;;
13868;SDS011;7004;48.206;16.402;2022-08-21T15:31:36;4.30;;;3.23;;
13868;SDS011;7004;48.206;16.402;2022-08-21T15:34:24;3.80;;;3.50;;
13868;SDS011;7004;48.206;16.402;2022-08-21T15:36:53;3.53;;;3.23;;
13868;SDS011;7004;48.206;16.402;2022-08-21T15:39:26;3.90;;;3.53;;
13868;SDS011;7004;48.206;16.402;2022-08-21T15:41:52;5.13;;;3.47;;
13868;SDS011;7004;48.206;16.402;2022-08-21T15:44:19;4.40;;;3.80;;
13868;SDS011;7004;48.206;16.402;2022-08-21T15:46:46;3.97;;;3.67;;
13868;SDS011;7004;48.206;16.402;2022-08-21T15:49:12;4.80;;;3.90;;
13868;SDS011;7004;48.206;16.402;2022-08-21T15:51:38;3.67;;;3.37;;
13868;SDS011;7004;48.206;16.402;2022-08-21T15:54:04;3.70;;;3.20;;
13868;SDS011;7004;48.206;16.402;2022-08-21T15:56:34;4.40;;;3.30;;
13868;SDS011;7004;48.206;16.402;2022-08-21T15:59:07;4.30;;;3.90;;
13868;SDS011;7004;48.206;16.402;2022-08-21T16:01:42;3.30;;;3.10;;
13868;SDS011;7004;48.206;16.402;2022-08-21T16:04:09;4.13;;;3.60;;
13868;SDS011;7004;48.206;16.402;2022-08-21T16:06:40;3.50;;;3.20;;
13868;SDS011;7004;48.206;16.402;2022-08-21T16:09:07;4.73;;;4.03;;
13868;SDS011;7004;48.206;16.402;2022-08-21T16:11:34;3.83;;;3.47;;
13868;SDS011;7004;48.206;16.402;2022-08-21T16:14:00;5.83;;;4.30;;
13868;SDS011;7004;48.206;16.402;2022-08-21T16:16:26;4.00;;;3.53;;
13868;SDS011;7004;48.206;16.402;2022-08-21T16:18:57;5.07;;;3.77;;
13868;SDS011;7004;48.206;16.402;2022-08-21T16:21:25;3.67;;;3.17;;
13868;SDS011;7004;48.206;16.402;2022-08-21T16:23:52;5.37;;;3.70;;
13868;SDS011;7004;48.206;16.402;2022-08-21T16:26:18;5.10;;;3.53;;
13868;SDS011;7004;48.206;16.402;2022-08-21T16:28:44;4.60;;;4.20;;
13868;SDS011;7004;48.206;16.402;2022-08-21T16:31:11;3.43;;;3.13;;
13868;SDS011;7004;48.206;16.402;2022-08-21T16:33:39;5.10;;;3.50;;
13868;SDS011;7004;48.206;16.402;2022-08-21T16:36:09;8.50;;;3.63;;
13868;SDS011;7004;48.206;16.402;2022-08-21T16:38:37;3.60;;;3.30;;
13868;SDS011;7004;48.206;16.402;2022-08-21T16:41:06;3.77;;;3.33;;
13868;SDS011;7004;48.206;16.402;2022-08-21T16:43:40;4.10;;;3.70;;
13868;SDS011;7004;48.206;16.402;2022-08-21T16:46:07;4.17;;;3.77;;
13868;SDS011;7004;48.206;16.402;2022-08-21T16:48:36;4.63;;;3.43;;
13868;SDS011;7004;48.206;16.402;2022-08-21T16:51:04;4.20;;;3.63;;